Terminal Aerodrome Forecast
Issued by NWS

Home | Current Version | Previous Version | Text Only | Print | Product List | Glossary On
Versions: 1 2 3 4 5 6 7 8 9 10 11 12 13 14 15
000
FTUS43 KMQT 250142 AAA
TAFSAW
TAF AMD
KSAW 250142Z 2502/2524 VRB03KT P6SM -SHRA SCT008 OVC040
     FM250700 00000KT P6SM BKN008
     FM250900 30003KT P6SM BKN010
     FM251500 35006KT P6SM BKN020
     FM251600 36006KT P6SM VCSH BKN035
     FM251800 02008KT P6SM BKN070=

USA.gov is the U.S. government's official web portal to all federal, state and local government web resources and services.